Time;durP1;ratioP1;P1;durP2;ratioP2;P2;SDS_P1;SDS_P2;PMS_P1;PMS_P2;Temp;Humidity;BMP_temperature;BMP_pressure;BME280_temperature;BME280_humidity;BME280_pressure;Samples;Min_cycle;Max_cycle;Signal;HPM_P1;HPM_P2
2022/04/09 00:02:19;;;;;;;0.50;0.50;;;3.40;83.60;;;;;;4971536;28;20048;-80
2022/04/09 00:04:45;;;;;;;0.50;0.50;;;3.40;83.60;;;;;;4971368;28;20042;-81
2022/04/09 00:07:10;;;;;;;0.50;0.50;;;3.40;83.60;;;;;;4966447;28;20121;-80
2022/04/09 00:09:36;;;;;;;1.00;0.65;;;3.40;83.60;;;;;;4966152;28;20069;-81
2022/04/09 00:12:02;;;;;;;2.40;0.88;;;3.40;83.70;;;;;;4969050;28;20114;-81
2022/04/09 00:14:27;;;;;;;0.63;0.63;;;3.40;83.70;;;;;;4960136;28;20068;-80
2022/04/09 00:16:53;;;;;;;0.98;0.60;;;3.40;83.70;;;;;;4962778;28;20611;-81
2022/04/09 00:19:19;;;;;;;1.15;0.60;;;3.30;83.60;;;;;;4953704;28;20640;-80
2022/04/09 00:21:46;;;;;;;0.70;0.70;;;3.30;83.60;;;;;;4961561;28;20061;-81
2022/04/09 00:24:12;;;;;;;0.70;0.50;;;3.30;83.70;;;;;;4938930;28;20463;-80
2022/04/09 00:26:38;;;;;;;0.77;0.77;;;3.30;83.80;;;;;;4955584;28;20054;-80
2022/04/09 00:29:03;;;;;;;0.50;0.50;;;3.20;83.80;;;;;;4974198;28;20063;-80
2022/04/09 00:31:29;;;;;;;0.65;0.65;;;3.20;83.90;;;;;;4961116;28;20045;-80
2022/04/09 00:33:54;;;;;;;1.70;0.70;;;3.20;84.00;;;;;;4957373;28;20541;-81
2022/04/09 00:36:20;;;;;;;0.70;0.70;;;3.20;84.10;;;;;;4952209;28;20142;-81
2022/04/09 00:38:46;;;;;;;1.55;0.85;;;3.30;84.10;;;;;;4970185;28;20048;-80
2022/04/09 00:41:11;;;;;;;1.02;0.73;;;3.30;84.20;;;;;;4974402;28;20038;-81
2022/04/09 00:43:40;;;;;;;0.73;0.70;;;3.30;84.20;;;;;;4971240;28;20031;-80
2022/04/09 00:46:06;;;;;;;0.70;0.60;;;3.30;84.30;;;;;;4961824;28;20035;-80
2022/04/09 00:48:31;;;;;;;0.50;0.50;;;3.30;84.20;;;;;;4926836;28;20099;-80
2022/04/09 00:50:58;;;;;;;0.60;0.60;;;3.30;84.20;;;;;;4959318;28;20046;-80
2022/04/09 00:53:23;;;;;;;1.08;1.05;;;3.30;84.30;;;;;;4950021;28;20639;-80
2022/04/09 00:58:33;;;;;;;4.35;1.20;;;3.40;84.30;;;;;;4976993;28;20045;-80
2022/04/09 01:00:58;;;;;;;1.10;1.00;;;3.40;84.30;;;;;;4962315;28;20428;-81
2022/04/09 01:03:24;;;;;;;0.82;0.82;;;3.30;84.30;;;;;;4962383;28;20701;-81
2022/04/09 01:05:50;;;;;;;2.50;1.60;;;3.30;84.30;;;;;;4989368;28;20129;-81
2022/04/09 01:08:15;;;;;;;1.65;1.23;;;3.40;84.40;;;;;;4963413;28;20041;-80
2022/04/09 01:10:41;;;;;;;1.63;1.33;;;3.40;84.40;;;;;;4963231;28;20034;-81
2022/04/09 01:13:06;;;;;;;1.83;1.40;;;3.40;84.50;;;;;;4954273;28;20039;-81
2022/04/09 01:15:32;;;;;;;3.40;1.70;;;3.40;84.50;;;;;;4967381;28;20045;-81
2022/04/09 01:17:59;;;;;;;2.42;2.08;;;3.40;84.50;;;;;;4956890;28;20085;-81
2022/04/09 01:20:29;;;;;;;2.22;2.00;;;3.40;84.60;;;;;;4936370;28;20051;-81
2022/04/09 01:22:54;;;;;;;2.58;2.10;;;3.40;84.60;;;;;;4969324;28;20037;-81
2022/04/09 01:25:20;;;;;;;4.03;2.83;;;3.40;84.60;;;;;;4938449;28;20629;-81
2022/04/09 01:27:48;;;;;;;5.18;2.80;;;3.40;84.60;;;;;;4961778;28;20584;-81
2022/04/09 01:30:14;;;;;;;3.83;2.47;;;3.40;84.60;;;;;;4964862;28;20074;-82
2022/04/09 01:32:40;;;;;;;5.47;2.90;;;3.40;84.70;;;;;;4948089;28;20046;-81
2022/04/09 01:35:06;;;;;;;3.90;3.08;;;3.40;84.70;;;;;;4957562;28;20524;-81
2022/04/09 01:37:34;;;;;;;5.25;3.97;;;3.40;84.70;;;;;;4955297;28;20034;-81
2022/04/09 01:40:00;;;;;;;6.88;3.90;;;3.40;84.80;;;;;;4943298;28;20069;-81
2022/04/09 01:42:26;;;;;;;5.93;3.80;;;3.40;84.80;;;;;;4951788;28;20066;-81
2022/04/09 01:44:55;;;;;;;5.15;4.40;;;3.40;84.90;;;;;;4969475;28;20038;-81
2022/04/09 01:47:20;;;;;;;5.32;3.70;;;3.40;84.90;;;;;;4932703;28;20043;-81
2022/04/09 01:49:46;;;;;;;4.90;3.92;;;3.40;84.90;;;;;;4954583;28;20191;-81
2022/04/09 01:52:11;;;;;;;6.78;4.65;;;3.40;84.90;;;;;;4937964;28;20848;-80
2022/04/09 01:54:37;;;;;;;5.72;4.30;;;3.40;85.70;;;;;;4962893;28;20656;-81
2022/04/09 01:57:03;;;;;;;7.70;4.22;;;3.40;85.00;;;;;;4969848;28;20217;-80
2022/04/09 01:59:28;;;;;;;7.60;4.63;;;3.40;85.10;;;;;;4968182;28;20540;-80
2022/04/09 02:01:54;;;;;;;6.15;4.30;;;3.40;85.10;;;;;;4966903;28;20065;-80
2022/04/09 02:04:20;;;;;;;6.45;4.60;;;3.30;85.20;;;;;;4972596;28;20042;-80
2022/04/09 02:06:46;;;;;;;7.07;5.00;;;3.30;85.30;;;;;;4952067;28;20038;-81
2022/04/09 02:09:11;;;;;;;6.95;4.65;;;3.30;85.30;;;;;;4963784;28;20044;-80
2022/04/09 02:11:40;;;;;;;6.90;4.68;;;3.30;85.40;;;;;;4970803;28;20035;-80
2022/04/09 02:14:09;;;;;;;6.53;4.43;;;3.30;85.50;;;;;;4954392;28;20046;-78
2022/04/09 02:16:36;;;;;;;7.32;4.78;;;3.30;85.50;;;;;;4944983;28;20029;-80
2022/04/09 02:19:02;;;;;;;6.43;4.47;;;3.30;85.50;;;;;;4968743;28;20050;-79
2022/04/09 02:21:27;;;;;;;8.02;5.32;;;3.30;85.50;;;;;;4966227;28;20034;-79
2022/04/09 02:23:53;;;;;;;10.00;5.45;;;3.30;85.60;;;;;;4970044;28;20420;-80
2022/04/09 02:26:19;;;;;;;6.38;5.30;;;3.30;85.60;;;;;;4966660;28;20034;-79
2022/04/09 02:28:47;;;;;;;6.57;5.35;;;3.30;85.60;;;;;;4942352;28;20201;-79
2022/04/09 02:31:13;;;;;;;8.10;5.90;;;3.30;85.70;;;;;;4994600;28;20061;-79
2022/04/09 02:33:39;;;;;;;7.90;5.20;;;3.30;85.60;;;;;;4974338;28;20050;-80
2022/04/09 02:36:05;;;;;;;10.27;6.15;;;3.30;85.70;;;;;;4972366;28;20034;-80
2022/04/09 02:38:31;;;;;;;8.27;6.00;;;3.30;85.70;;;;;;4967363;28;20405;-79
2022/04/09 02:40:57;;;;;;;7.57;5.90;;;3.30;85.80;;;;;;4962144;28;20039;-79
2022/04/09 02:43:22;;;;;;;9.57;6.47;;;3.30;85.80;;;;;;4943446;28;20580;-80
2022/04/09 02:45:48;;;;;;;7.55;5.82;;;3.30;85.80;;;;;;4975375;28;20032;-79
2022/04/09 02:48:15;;;;;;;10.63;6.53;;;3.20;85.80;;;;;;4951198;28;20072;-79
2022/04/09 02:50:40;;;;;;;9.60;6.25;;;3.20;85.90;;;;;;4971486;28;20031;-80
2022/04/09 02:53:09;;;;;;;13.38;6.50;;;3.20;85.90;;;;;;4955114;28;20484;-80
2022/04/09 02:55:34;;;;;;;11.93;6.78;;;3.20;86.00;;;;;;4961330;28;20034;-79
2022/04/09 02:58:01;;;;;;;9.60;6.72;;;3.10;86.00;;;;;;4952130;28;20551;-80
2022/04/09 03:00:27;;;;;;;8.85;6.20;;;3.10;86.10;;;;;;4963946;28;20042;-78
2022/04/09 03:02:52;;;;;;;8.18;5.70;;;3.10;86.10;;;;;;4963384;28;20046;-78
2022/04/09 03:05:18;;;;;;;7.53;5.60;;;3.10;86.10;;;;;;4966817;28;20489;-79
2022/04/09 03:07:43;;;;;;;12.35;7.00;;;3.10;86.20;;;;;;4970455;28;20092;-78
2022/04/09 03:10:09;;;;;;;10.60;6.50;;;3.10;86.20;;;;;;4960392;28;20114;-78
2022/04/09 03:12:35;;;;;;;9.85;6.53;;;3.10;86.20;;;;;;4966526;28;20402;-78
2022/04/09 03:15:00;;;;;;;10.88;6.85;;;3.10;86.20;;;;;;4951666;28;20054;-78
2022/04/09 03:17:26;;;;;;;9.25;6.28;;;3.10;86.40;;;;;;4953646;28;20070;-78
2022/04/09 03:19:51;;;;;;;9.70;6.55;;;3.10;86.40;;;;;;4967089;28;20026;-78
2022/04/09 03:22:17;;;;;;;10.45;6.88;;;3.10;86.40;;;;;;4965381;28;20042;-78
2022/04/09 03:24:43;;;;;;;9.40;6.45;;;3.10;86.40;;;;;;4957592;28;20203;-78
2022/04/09 03:27:08;;;;;;;11.05;6.72;;;3.10;86.50;;;;;;4986924;28;20051;-78
2022/04/09 03:29:34;;;;;;;10.32;6.82;;;3.10;86.50;;;;;;4956539;28;20045;-78
2022/04/09 03:32:00;;;;;;;10.88;6.72;;;3.10;86.50;;;;;;4971410;28;20038;-78
2022/04/09 03:34:25;;;;;;;10.30;7.05;;;3.10;86.50;;;;;;4954041;28;20060;-78
2022/04/09 03:36:51;;;;;;;8.23;6.40;;;3.10;86.50;;;;;;4953852;28;20030;-78
2022/04/09 03:39:17;;;;;;;8.32;5.57;;;3.10;86.50;;;;;;4933416;28;20043;-78
2022/04/09 03:41:42;;;;;;;10.05;6.57;;;3.10;86.60;;;;;;4971849;28;20728;-78
2022/04/09 03:44:08;;;;;;;8.85;6.30;;;3.00;86.60;;;;;;4970922;28;20050;-78
2022/04/09 03:46:33;;;;;;;8.98;6.00;;;3.00;86.60;;;;;;4953083;28;20030;-78
2022/04/09 03:48:59;;;;;;;9.13;5.97;;;3.00;86.60;;;;;;4984568;28;20041;-78
2022/04/09 03:51:24;;;;;;;8.23;5.95;;;3.00;86.70;;;;;;4966107;28;20045;-79
2022/04/09 03:53:50;;;;;;;9.63;5.70;;;3.10;86.80;;;;;;4972212;28;20053;-78
2022/04/09 03:56:15;;;;;;;10.55;5.63;;;3.00;86.70;;;;;;4976909;28;20038;-78
2022/04/09 03:58:43;;;;;;;12.00;5.47;;;3.00;86.70;;;;;;4980212;28;20412;-78
2022/04/09 04:01:08;;;;;;;10.23;6.53;;;3.00;86.70;;;;;;4985999;28;20077;-78
2022/04/09 04:03:34;;;;;;;8.52;6.38;;;3.00;86.80;;;;;;4976630;28;20026;-78
2022/04/09 04:06:01;;;;;;;10.07;6.38;;;3.10;86.90;;;;;;4960253;28;20119;-78
2022/04/09 04:08:26;;;;;;;8.77;5.93;;;3.00;86.90;;;;;;4956777;28;20049;-78
2022/04/09 04:10:52;;;;;;;8.82;6.63;;;3.10;87.00;;;;;;4978517;28;20030;-78
2022/04/09 04:13:17;;;;;;;11.43;6.22;;;3.10;87.00;;;;;;4978988;28;20038;-79
2022/04/09 04:15:44;;;;;;;11.02;5.38;;;3.10;86.90;;;;;;4971315;28;20038;-79
2022/04/09 04:18:09;;;;;;;9.25;5.90;;;3.10;86.90;;;;;;4979208;28;20039;-78
2022/04/09 04:20:35;;;;;;;8.75;5.80;;;3.00;86.90;;;;;;4972581;28;20038;-78
2022/04/09 04:23:03;;;;;;;10.32;6.80;;;3.10;86.90;;;;;;4970343;28;20053;-78
2022/04/09 04:25:29;;;;;;;11.98;6.05;;;3.00;86.90;;;;;;4963647;28;20121;-78
2022/04/09 04:27:54;;;;;;;11.02;6.28;;;3.10;86.90;;;;;;4971162;28;20046;-78
2022/04/09 04:30:20;;;;;;;8.32;5.75;;;3.00;87.70;;;;;;4987323;28;20077;-78
2022/04/09 04:32:45;;;;;;;11.43;5.75;;;3.00;86.90;;;;;;4974600;28;20045;-78
2022/04/09 04:35:11;;;;;;;9.95;5.82;;;3.00;86.90;;;;;;4960739;28;20034;-79
2022/04/09 04:37:41;;;;;;;12.98;5.88;;;3.00;87.00;;;;;;4977778;28;20078;-78
2022/04/09 04:40:08;;;;;;;11.07;6.35;;;3.00;87.10;;;;;;4965800;28;20046;-79
2022/04/09 04:42:33;;;;;;;10.95;5.68;;;3.00;87.10;;;;;;4960432;28;20033;-79
2022/04/09 04:44:59;;;;;;;8.20;5.85;;;3.00;87.10;;;;;;4961887;28;20038;-79
2022/04/09 04:47:25;;;;;;;12.77;5.65;;;3.00;87.10;;;;;;4936754;28;20785;-78
2022/04/09 04:49:50;;;;;;;7.72;5.32;;;3.00;87.10;;;;;;4973368;28;20038;-79
2022/04/09 04:52:16;;;;;;;9.02;5.05;;;3.00;87.20;;;;;;4985719;28;20042;-79
2022/04/09 04:54:41;;;;;;;12.88;5.53;;;3.00;87.20;;;;;;4977082;28;20054;-78
2022/04/09 04:57:07;;;;;;;11.23;5.78;;;3.00;87.10;;;;;;4986132;28;20528;-79
2022/04/09 04:59:33;;;;;;;10.70;6.45;;;3.00;87.20;;;;;;4958424;28;20041;-78
2022/04/09 05:01:58;;;;;;;9.68;6.20;;;3.00;87.20;;;;;;4967656;28;20042;-79
2022/04/09 05:04:25;;;;;;;11.27;6.00;;;3.00;87.20;;;;;;4970932;28;20030;-78
2022/04/09 05:06:51;;;;;;;9.25;5.82;;;3.00;87.30;;;;;;4965907;28;20082;-79
2022/04/09 05:09:17;;;;;;;9.13;6.25;;;3.00;87.30;;;;;;4957420;28;20825;-78
2022/04/09 05:11:43;;;;;;;10.57;6.28;;;3.00;87.30;;;;;;4958851;28;20128;-79
2022/04/09 05:14:08;;;;;;;9.23;5.88;;;3.00;87.30;;;;;;4981002;28;20062;-78
2022/04/09 05:16:34;;;;;;;13.43;6.60;;;3.00;87.30;;;;;;4959735;28;20030;-79
2022/04/09 05:18:59;;;;;;;10.25;6.32;;;3.00;87.40;;;;;;4964233;28;20030;-79
2022/04/09 05:21:25;;;;;;;13.23;6.65;;;3.00;87.40;;;;;;4957396;28;20494;-78
2022/04/09 05:23:51;;;;;;;11.40;7.05;;;3.00;87.40;;;;;;4966725;28;20034;-78
2022/04/09 05:26:16;;;;;;;13.73;6.68;;;3.00;87.40;;;;;;4970643;28;20118;-78
2022/04/09 05:28:42;;;;;;;11.50;7.13;;;3.00;87.40;;;;;;4972375;28;20490;-79
2022/04/09 05:31:09;;;;;;;11.40;7.00;;;3.00;87.40;;;;;;4946578;28;20042;-78
2022/04/09 05:33:34;;;;;;;16.38;7.30;;;3.00;87.40;;;;;;4979930;28;20030;-78
2022/04/09 05:36:02;;;;;;;13.32;7.07;;;3.00;87.40;;;;;;4972744;28;20129;-78
2022/04/09 05:38:28;;;;;;;11.38;6.93;;;3.00;87.50;;;;;;4956344;28;20030;-78
2022/04/09 05:40:53;;;;;;;20.50;9.57;;;3.00;87.50;;;;;;4987172;28;20034;-78
2022/04/09 05:43:19;;;;;;;13.13;7.15;;;3.10;87.60;;;;;;4939685;28;20134;-78
2022/04/09 05:45:45;;;;;;;15.10;6.88;;;3.10;87.70;;;;;;4968191;28;20065;-77
2022/04/09 05:48:10;;;;;;;14.55;7.95;;;3.10;87.60;;;;;;4967796;28;20631;-78
2022/04/09 05:50:36;;;;;;;15.43;7.90;;;3.10;87.70;;;;;;4968352;28;20049;-77
2022/04/09 05:53:02;;;;;;;13.77;7.90;;;3.10;87.70;;;;;;4972246;28;20400;-77
2022/04/09 05:55:28;;;;;;;17.45;9.40;;;3.20;87.80;;;;;;4956050;28;20680;-77
2022/04/09 05:57:54;;;;;;;17.13;8.43;;;3.20;87.80;;;;;;4987930;28;20074;-78
2022/04/09 06:00:19;;;;;;;12.57;6.90;;;3.30;87.90;;;;;;4974359;28;20045;-78
2022/04/09 06:02:45;;;;;;;12.13;6.32;;;3.30;87.90;;;;;;4945951;28;20107;-79
2022/04/09 06:05:11;;;;;;;10.18;6.35;;;3.40;87.90;;;;;;4984889;28;20039;-79
2022/04/09 06:07:36;;;;;;;11.77;6.05;;;3.40;87.90;;;;;;4972563;28;20050;-78
2022/04/09 06:10:05;;;;;;;12.88;7.15;;;3.40;87.80;;;;;;4972650;28;20050;-78
2022/04/09 06:12:32;;;;;;;12.50;6.50;;;3.50;87.80;;;;;;4963366;28;20050;-79
2022/04/09 06:14:57;;;;;;;11.70;6.43;;;3.50;87.70;;;;;;4956389;28;20528;-78
2022/04/09 06:17:26;;;;;;;11.75;5.53;;;3.60;87.70;;;;;;4973175;28;20039;-78
2022/04/09 06:19:51;;;;;;;12.98;6.45;;;3.60;87.70;;;;;;4959802;28;20056;-78
2022/04/09 06:22:18;;;;;;;14.68;6.65;;;3.60;87.70;;;;;;4947494;28;20548;-78
2022/04/09 06:24:44;;;;;;;12.98;6.57;;;3.60;87.70;;;;;;4954508;28;20192;-77
2022/04/09 06:27:12;;;;;;;12.68;6.05;;;3.70;87.70;;;;;;4940755;28;20121;-78
2022/04/09 06:29:38;;;;;;;13.27;5.88;;;3.70;87.70;;;;;;4971557;28;20035;-78
2022/04/09 06:32:04;;;;;;;11.95;6.85;;;3.70;87.60;;;;;;4985372;28;20427;-78
2022/04/09 06:34:29;;;;;;;10.07;5.57;;;3.80;87.70;;;;;;4961934;28;20581;-79
2022/04/09 06:36:55;;;;;;;11.23;5.05;;;3.80;87.70;;;;;;4966825;28;20038;-79
2022/04/09 06:39:23;;;;;;;10.25;5.30;;;3.80;87.70;;;;;;4975798;28;20023;-79
2022/04/09 06:41:49;;;;;;;12.65;5.07;;;3.80;87.70;;;;;;4960231;28;20034;-79
2022/04/09 06:44:15;;;;;;;8.60;5.07;;;3.80;87.70;;;;;;4968270;28;20034;-79
2022/04/09 06:46:43;;;;;;;10.07;5.40;;;3.90;87.60;;;;;;4952120;28;20149;-80
2022/04/09 06:49:11;;;;;;;8.00;4.53;;;3.90;87.60;;;;;;4973212;28;20038;-79
2022/04/09 06:51:38;;;;;;;9.38;4.18;;;3.90;87.60;;;;;;4970587;28;20034;-80
2022/04/09 06:54:03;;;;;;;6.03;4.68;;;3.90;87.60;;;;;;4949186;28;20041;-80
2022/04/09 06:56:29;;;;;;;10.27;4.88;;;3.90;87.50;;;;;;4966632;28;20049;-79
2022/04/09 06:58:54;;;;;;;16.98;5.60;;;3.90;87.50;;;;;;4969219;28;20124;-79
2022/04/09 07:01:20;;;;;;;16.52;8.00;;;4.00;87.50;;;;;;4950246;28;20172;-79
2022/04/09 07:03:45;;;;;;;13.65;7.28;;;4.00;87.50;;;;;;4962306;28;20025;-79
2022/04/09 07:06:13;;;;;;;11.32;4.97;;;4.00;87.50;;;;;;4966214;28;20389;-80
2022/04/09 07:08:39;;;;;;;10.85;4.93;;;4.00;87.50;;;;;;4953810;28;20173;-79
2022/04/09 07:11:05;;;;;;;7.95;4.03;;;4.10;87.50;;;;;;4984712;28;20030;-79
2022/04/09 07:13:31;;;;;;;13.15;6.00;;;4.10;87.50;;;;;;4955130;28;20088;-80
2022/04/09 07:15:57;;;;;;;18.60;9.23;;;4.10;87.50;;;;;;4984491;28;20060;-80
2022/04/09 07:18:23;;;;;;;8.98;4.00;;;4.20;87.40;;;;;;4972215;28;20057;-80
2022/04/09 07:20:48;;;;;;;7.32;3.70;;;4.20;87.50;;;;;;4947643;28;20037;-80
2022/04/09 07:23:14;;;;;;;10.65;4.30;;;4.20;87.50;;;;;;4968027;28;20078;-80
2022/04/09 07:25:42;;;;;;;12.20;4.10;;;4.30;87.50;;;;;;4967682;28;20523;-80
2022/04/09 07:28:07;;;;;;;8.50;3.90;;;4.50;87.60;;;;;;4987161;28;20050;-79
2022/04/09 07:30:33;;;;;;;8.43;3.63;;;4.50;87.40;;;;;;4976410;28;21500;-79
2022/04/09 07:32:58;;;;;;;8.32;3.65;;;4.70;87.50;;;;;;4969297;28;20031;-79
2022/04/09 07:35:27;;;;;;;8.88;3.90;;;4.80;87.40;;;;;;4975790;28;20061;-79
2022/04/09 07:37:58;;;;;;;11.68;4.78;;;4.90;87.30;;;;;;4984016;28;20139;-79
2022/04/09 07:40:24;;;;;;;;;;;5.00;87.20;;;;;;4964118;28;20775;-79
2022/04/09 07:42:50;;;;;;;12.57;3.72;;;5.10;86.80;;;;;;4953999;28;20008;-80
2022/04/09 07:45:15;;;;;;;10.52;3.30;;;5.20;86.60;;;;;;4988959;28;20042;-79
2022/04/09 07:47:41;;;;;;;7.53;3.63;;;5.30;86.50;;;;;;4982070;28;20053;-80
2022/04/09 07:50:10;;;;;;;6.22;2.78;;;5.30;86.30;;;;;;4994664;28;20124;-80
2022/04/09 07:52:42;;;;;;;6.55;2.63;;;5.30;86.30;;;;;;4975096;28;20421;-80
2022/04/09 07:55:09;;;;;;;5.60;2.97;;;5.40;86.20;;;;;;4970659;28;20038;-81
2022/04/09 07:57:34;;;;;;;9.55;4.03;;;5.40;86.00;;;;;;4972127;28;20097;-80
2022/04/09 08:00:00;;;;;;;7.32;3.50;;;5.40;85.90;;;;;;4969033;28;20047;-80
2022/04/09 08:02:25;;;;;;;7.88;2.65;;;5.50;85.80;;;;;;4957662;28;20062;-80
2022/04/09 08:04:51;;;;;;;4.70;3.13;;;5.50;85.70;;;;;;4972663;28;20031;-79
2022/04/09 08:07:17;;;;;;;8.85;4.05;;;5.50;85.70;;;;;;4978999;28;20046;-79
2022/04/09 08:09:44;;;;;;;9.35;4.20;;;5.50;85.60;;;;;;4979180;28;20031;-80
2022/04/09 08:12:12;;;;;;;12.68;4.68;;;5.50;85.50;;;;;;4950448;28;20094;-80
2022/04/09 08:14:38;;;;;;;5.15;2.35;;;5.50;85.50;;;;;;4978258;28;20034;-81
2022/04/09 08:17:04;;;;;;;12.55;3.22;;;5.50;85.50;;;;;;4970928;28;20030;-80
2022/04/09 08:19:29;;;;;;;5.50;2.75;;;5.50;85.40;;;;;;4953691;28;20105;-79
2022/04/09 08:21:56;;;;;;;7.10;2.97;;;5.50;85.30;;;;;;4947894;28;20389;-79
2022/04/09 08:24:21;;;;;;;4.22;2.47;;;5.50;85.30;;;;;;4950653;28;20033;-79
2022/04/09 08:26:47;;;;;;;8.15;3.75;;;5.50;85.30;;;;;;4970033;28;20117;-79
2022/04/09 08:29:18;;;;;;;7.40;2.53;;;5.50;85.20;;;;;;4950125;28;20177;-79
2022/04/09 08:31:47;;;;;;;7.07;2.38;;;5.50;85.20;;;;;;4938192;28;20062;-78
2022/04/09 08:34:12;;;;;;;8.63;2.53;;;5.50;85.10;;;;;;4965526;28;20397;-78
2022/04/09 08:36:38;;;;;;;7.82;3.03;;;5.50;85.00;;;;;;4965140;28;20037;-79
2022/04/09 08:39:03;;;;;;;7.50;2.75;;;5.50;85.00;;;;;;4973455;28;20038;-78
2022/04/09 08:41:29;;;;;;;7.88;3.63;;;5.50;85.00;;;;;;4974337;28;20030;-78
2022/04/09 08:43:54;;;;;;;5.38;2.50;;;5.50;85.00;;;;;;4966982;28;20038;-78
2022/04/09 08:46:20;;;;;;;7.20;2.13;;;5.50;85.10;;;;;;4966121;28;20058;-79
2022/04/09 08:48:47;;;;;;;8.63;2.72;;;5.50;85.00;;;;;;4945692;28;20051;-79
2022/04/09 08:51:12;;;;;;;4.18;1.90;;;5.50;85.00;;;;;;4964661;28;20046;-79
2022/04/09 08:53:38;;;;;;;5.63;2.53;;;5.40;84.90;;;;;;4943960;28;20692;-79
2022/04/09 08:56:05;;;;;;;9.90;3.22;;;5.50;85.00;;;;;;4954141;28;20378;-79
2022/04/09 08:58:30;;;;;;;8.02;2.40;;;5.50;85.10;;;;;;4964806;28;20038;-79
2022/04/09 09:00:56;;;;;;;13.70;3.33;;;5.50;85.10;;;;;;4961533;28;20480;-79
2022/04/09 09:03:21;;;;;;;6.07;2.42;;;5.60;85.10;;;;;;4971958;28;20035;-79
2022/04/09 09:05:52;;;;;;;5.78;2.10;;;5.60;85.10;;;;;;4964588;28;20030;-79
2022/04/09 09:08:34;;;;;;;6.00;2.80;;;5.70;85.30;;;;;;4969453;28;20042;-78
2022/04/09 09:10:59;;;;;;;9.93;2.45;;;5.80;85.20;;;;;;4953118;28;20041;-78
2022/04/09 09:13:25;;;;;;;7.88;1.75;;;5.90;85.10;;;;;;4954446;28;20034;-78
2022/04/09 09:15:52;;;;;;;7.78;2.70;;;6.10;85.10;;;;;;4977218;28;20051;-78
2022/04/09 09:18:24;;;;;;;4.80;2.80;;;6.20;85.00;;;;;;4966985;28;20042;-78
2022/04/09 09:20:56;;;;;;;;;;;6.20;84.70;;;;;;4969597;28;20037;-79
2022/04/09 09:23:26;;;;;;;5.93;2.10;;;6.30;84.50;;;;;;4985450;28;19913;-78
2022/04/09 09:25:53;;;;;;;9.48;3.10;;;6.40;84.50;;;;;;4955544;28;20034;-79
2022/04/09 09:28:32;;;;;;;9.25;2.25;;;6.50;84.40;;;;;;4967384;28;20038;-78
2022/04/09 09:30:57;;;;;;;10.55;4.05;;;6.60;84.30;;;;;;4967151;28;20039;-78
2022/04/09 09:33:23;;;;;;;8.13;4.03;;;6.60;84.00;;;;;;4969019;28;20517;-79
2022/04/09 09:35:49;;;;;;;7.70;3.25;;;6.70;83.90;;;;;;4951599;28;21255;-78
2022/04/09 09:38:33;;;;;;;10.73;3.55;;;6.80;83.90;;;;;;4979434;28;20057;-78
2022/04/09 09:40:59;;;;;;;8.20;4.18;;;6.90;83.80;;;;;;4962593;28;20030;-79
2022/04/09 09:43:25;;;;;;;8.63;2.85;;;7.00;83.60;;;;;;4972745;28;20041;-77
2022/04/09 09:45:53;;;;;;;8.27;2.80;;;7.10;83.30;;;;;;4962102;28;20047;-79
2022/04/09 09:48:21;;;;;;;4.68;1.95;;;7.10;83.10;;;;;;4970816;28;20058;-78
2022/04/09 09:50:47;;;;;;;9.32;2.60;;;7.20;83.00;;;;;;4989103;28;20446;-79
2022/04/09 09:53:14;;;;;;;7.00;2.17;;;7.20;82.80;;;;;;4963449;28;20496;-79
2022/04/09 09:55:43;;;;;;;7.38;2.00;;;7.20;82.60;;;;;;4955860;28;20039;-79
2022/04/09 09:58:15;;;;;;;10.05;2.55;;;7.30;82.40;;;;;;4975115;28;20047;-79
2022/04/09 10:00:40;;;;;;;7.88;3.38;;;7.40;82.30;;;;;;4951849;28;20568;-79
2022/04/09 10:03:06;;;;;;;9.70;3.42;;;7.40;82.00;;;;;;4941770;28;20230;-79
2022/04/09 10:05:32;;;;;;;5.35;1.90;;;7.50;82.00;;;;;;4960530;28;20077;-79
2022/04/09 10:07:59;;;;;;;9.70;2.22;;;7.60;81.90;;;;;;4967027;28;20046;-78
2022/04/09 10:10:26;;;;;;;10.60;1.65;;;7.70;81.60;;;;;;4954985;28;20038;-79
2022/04/09 10:12:52;;;;;;;5.15;1.70;;;7.80;81.50;;;;;;4963449;28;20049;-79
2022/04/09 10:15:17;;;;;;;8.20;2.30;;;7.90;81.30;;;;;;4949198;28;20035;-78
2022/04/09 10:17:43;;;;;;;5.95;2.05;;;8.10;81.30;;;;;;4927868;28;20071;-79
2022/04/09 10:20:10;;;;;;;5.53;1.60;;;8.30;81.20;;;;;;4981812;28;20137;-78
2022/04/09 10:22:42;;;;;;;5.35;2.05;;;8.60;81.10;;;;;;4946103;28;20101;-79
2022/04/09 10:25:07;;;;;;;4.82;2.13;;;8.90;80.70;;;;;;4957306;28;20061;-78
2022/04/09 10:27:37;;;;;;;5.88;1.67;;;9.10;80.30;;;;;;4956081;28;20039;-79
2022/04/09 10:30:03;;;;;;;11.55;2.22;;;9.30;79.80;;;;;;4963846;28;20177;-78
2022/04/09 10:32:56;;;;;;;5.22;1.85;;;9.60;79.30;;;;;;4958324;28;20058;-78
2022/04/09 10:35:31;;;;;;;6.25;1.67;;;9.80;78.30;;;;;;4945602;28;20075;-78
2022/04/09 10:38:12;;;;;;;7.20;2.05;;;10.10;78.40;;;;;;4948888;28;20038;-78
2022/04/09 10:40:50;;;;;;;4.93;1.65;;;10.30;77.70;;;;;;4974961;28;20034;-78
2022/04/09 10:43:39;;;;;;;4.38;1.63;;;10.50;76.90;;;;;;4963892;28;20071;-78
2022/04/09 10:46:16;;;;;;;4.80;1.85;;;10.60;75.80;;;;;;4956448;28;20030;-79
2022/04/09 10:48:47;;;;;;;4.63;1.65;;;10.70;76.40;;;;;;4981894;28;20042;-79
2022/04/09 10:51:13;;;;;;;3.75;1.67;;;10.80;75.80;;;;;;4962261;28;20193;-78
2022/04/09 10:53:48;;;;;;;4.43;1.60;;;11.00;75.50;;;;;;4966955;28;20574;-78
2022/04/09 10:56:24;;;;;;;7.05;1.80;;;11.10;75.00;;;;;;4915174;28;20046;-79
2022/04/09 10:59:18;;;;;;;5.35;1.52;;;11.20;74.80;;;;;;4950729;28;20066;-78
2022/04/09 11:01:46;;;;;;;3.35;1.85;;;11.50;74.30;;;;;;4978921;28;20041;-79
2022/04/09 11:04:34;;;;;;;10.88;2.28;;;11.80;74.50;;;;;;4982237;28;20124;-78
2022/04/09 11:07:07;;;;;;;5.80;1.75;;;12.00;72.90;;;;;;4979913;28;20112;-78
2022/04/09 11:09:56;;;;;;;3.33;1.77;;;12.10;73.00;;;;;;4944232;28;20046;-78
2022/04/09 11:12:37;;;;;;;6.07;1.60;;;12.20;72.50;;;;;;4939397;28;20041;-78
2022/04/09 11:15:04;;;;;;;5.10;1.37;;;12.30;72.70;;;;;;4971260;28;20039;-79
2022/04/09 11:17:34;;;;;;;2.83;1.35;;;12.40;72.20;;;;;;4945984;28;20034;-79
2022/04/09 11:20:11;;;;;;;8.38;2.05;;;12.50;71.30;;;;;;4961126;28;20464;-79
2022/04/09 11:22:55;;;;;;;6.45;1.92;;;12.60;70.70;;;;;;4969961;28;20035;-79
2022/04/09 11:25:21;;;;;;;4.70;1.63;;;12.80;71.10;;;;;;4959056;28;20039;-78
2022/04/09 11:27:47;;;;;;;7.38;1.58;;;13.00;70.60;;;;;;4976483;28;20034;-79
2022/04/09 11:30:13;;;;;;;7.68;1.92;;;13.20;70.20;;;;;;4981818;28;20050;-78
2022/04/09 11:32:38;;;;;;;5.95;2.08;;;13.30;69.60;;;;;;4972132;28;20026;-79
2022/04/09 11:35:11;;;;;;;5.80;1.98;;;13.40;69.20;;;;;;4963578;28;20167;-79
2022/04/09 11:37:49;;;;;;;3.60;1.80;;;13.50;68.80;;;;;;4956395;28;20038;-80
2022/04/09 11:40:15;;;;;;;4.20;2.03;;;13.60;67.10;;;;;;4960374;28;20452;-79
2022/04/09 11:42:54;;;;;;;4.43;1.80;;;13.60;67.50;;;;;;4971754;28;20096;-79
2022/04/09 11:45:31;;;;;;;8.60;2.60;;;13.40;66.40;;;;;;4955441;28;20033;-79
2022/04/09 11:47:58;;;;;;;5.30;2.08;;;13.40;67.10;;;;;;4940580;28;20034;-80
2022/04/09 11:50:25;;;;;;;4.63;1.50;;;13.50;67.70;;;;;;4960782;28;20078;-80
2022/04/09 11:52:51;;;;;;;5.15;1.75;;;13.70;67.50;;;;;;4956734;28;20050;-80
2022/04/09 11:55:16;;;;;;;7.65;2.28;;;13.80;67.00;;;;;;4943288;28;20097;-79
2022/04/09 11:57:52;;;;;;;5.93;1.33;;;13.90;66.70;;;;;;4985156;28;20043;-79
2022/04/09 12:00:23;;;;;;;7.28;1.85;;;14.10;65.70;;;;;;4963351;28;20048;-80
2022/04/09 12:02:48;;;;;;;4.38;1.30;;;14.20;66.20;;;;;;4952925;28;20046;-80
2022/04/09 12:05:14;;;;;;;5.32;1.58;;;14.30;65.70;;;;;;4940197;28;20106;-80
2022/04/09 12:07:44;;;;;;;4.68;1.60;;;14.40;65.00;;;;;;4953162;28;20046;-79
2022/04/09 12:10:25;;;;;;;5.53;1.30;;;14.40;64.30;;;;;;4950422;28;20130;-80
2022/04/09 12:13:00;;;;;;;4.30;2.20;;;14.40;63.20;;;;;;4941195;28;20540;-80
2022/04/09 12:15:33;;;;;;;4.97;1.52;;;14.30;63.50;;;;;;4965543;28;20034;-80
2022/04/09 12:18:06;;;;;;;5.45;1.67;;;14.30;63.30;;;;;;4987463;28;20462;-80
2022/04/09 12:20:43;;;;;;;3.58;1.65;;;14.10;63.40;;;;;;4946296;28;20047;-79
2022/04/09 12:23:08;;;;;;;4.35;1.40;;;14.00;62.70;;;;;;4984731;28;20077;-80
2022/04/09 12:25:34;;;;;;;3.15;1.50;;;14.00;63.10;;;;;;4952174;28;20698;-79
2022/04/09 12:28:00;;;;;;;2.95;1.45;;;13.90;62.90;;;;;;4969542;28;20070;-80
2022/04/09 12:30:42;;;;;;;4.18;1.42;;;13.90;62.70;;;;;;4948516;28;20066;-79
2022/04/09 12:33:11;;;;;;;5.03;1.10;;;13.80;61.60;;;;;;4955735;28;20049;-79
2022/04/09 12:35:37;;;;;;;3.63;1.10;;;13.70;61.90;;;;;;4970347;28;20177;-79
2022/04/09 12:38:03;;;;;;;3.53;1.23;;;13.60;62.50;;;;;;4964953;28;20153;-81
2022/04/09 12:40:30;;;;;;;2.28;1.08;;;13.60;62.70;;;;;;4965756;28;20038;-81
2022/04/09 12:42:55;;;;;;;5.60;1.63;;;13.60;62.90;;;;;;4958657;28;20465;-81
2022/04/09 12:45:23;;;;;;;3.97;1.35;;;13.60;62.90;;;;;;4964883;28;20614;-80
2022/04/09 12:47:59;;;;;;;5.97;2.70;;;13.60;63.10;;;;;;4981736;28;20038;-80
2022/04/09 12:50:30;;;;;;;7.43;2.92;;;13.60;63.10;;;;;;4954761;28;20454;-81
2022/04/09 12:52:57;;;;;;;9.85;4.80;;;13.60;63.20;;;;;;4967345;28;20030;-81
2022/04/09 12:55:24;;;;;;;7.07;1.92;;;13.50;63.00;;;;;;4982122;28;20135;-80
2022/04/09 12:57:49;;;;;;;3.05;1.75;;;13.20;63.40;;;;;;4971832;28;20038;-81